Detall de PIREP

Printer-friendly versionPDF version

[2016/12/25 07:25:00]
Flight IATA:CT1004
Pilot Number:012
Company ICAO:CAT
Aircraft Type:B463/A
PAX:100
Aircraft Registration:PAX
Departing Airport: LEDA
Destination Airport: EGLC
Alternate Airport:EGCC
Online: VATSIM
Route:BARBO UN608 GIROM UY110 REVTU UP87 DOMUT
Flight Level:F280
No Slew and time accel
No pause
Crash detect
Detect pilot in Cockpit between each 30 and 45 minutes
07:25 Zero fuel Weight: 73873 Lbs, Fuel Weight: 20643 Lbs
07:25 VATSIM:No METAR available for LEDA.
07:25 VATSIM:EGLC 250650Z AUTO 24013KT 9999 OVC015 11/08 Q1023
07:25 XMAS CHARTER
07:27 Parking Brakes off
07:31 Take-off
07:31 Take off Weight: 94121 Lbs
07:31 Wind: 000º @ 001 Knots Heading: 313º
07:31 POS N41º 43´ 54´´ E000º 31´ 47´´
07:31 Flaps:2 at 143 Knots
07:31 Gear Up: 148 Knots
07:32 Flaps:1 at 147 Knots
07:33 Flaps:0 at 153 Knots
07:46 Wind:051º@013 Knots Heading: 348º GroundSpeed: 387 Knots Altitude 27500 ft
07:47 TOC
07:47 Fuel Weight: 17862 Lb
08:01 Wind:346º@008 Knots Heading: 336º Ground Speed: 408 Knots Altitude 28658 ft
08:16 Wind:304º@011 Knots Heading: 334º Ground Speed: 409 Knots Altitude 28638 ft
08:31 Wind:268º@018 Knots Heading: 353º Ground Speed: 417 Knots Altitude 28566 ft
08:46 Wind:270º@035 Knots Heading: 351º Ground Speed: 416 Knots Altitude 28494 ft
09:01 Wind:271º@059 Knots Heading: 094º Ground Speed: 477 Knots Altitude 28362 ft
09:02 TOD
09:02 Fuel Weight: 10228 Lb
09:16 Wind:292º@065 Knots Heading: 282º Ground Speed: 236 Knots Altitude 11919 ft
09:27 Flaps:1 at 210 Knots
09:31 Wind:241º@014 Knots Heading: 007º Ground Speed: 215 Knots Altitude 2342 ft
09:36 Flaps:2 at 175 Knots
09:36 Gear Down: 174 Knots
09:36 Flaps:3 at 155 Knots
09:37 Flaps:4 at 139 Knots
09:39 TouchDown:Rate -226 ft/min Speed: 119 Knots
09:40 VATSIM:EGLC 250920Z AUTO 24014KT 9999 BKN016 OVC027 12/09 Q1024
09:40 Land
09:40 Wind:241º@014 Knots
09:40 Heading: 269º
09:40 Flight Duration: 02:09
09:40 Landing Weight: 81910 Lbs
09:40 POS N51º 30´ 19´´ E000º 02´ 52´´
09:41 Parking brakes on
09:41 Block to Block Duration: 02:14
09:41 Final Fuel: 7976 Lbls
09:41 Spent Fuel: 12667 Lbls
09:41 Flight Length: 770 NM
09:41 TOD Land Length: 165 NM

Exportar CSV

Powered by Drupal - Modified by Danger4k